sensor_id;sensor_type;location;lat;lon;timestamp;P1;durP1;ratioP1;P2;durP2;ratioP2
72095;SDS011;59968;51.084;16.748;2023-02-13T00:01:40;16.80;;;5.20;;
72095;SDS011;59968;51.084;16.748;2023-02-13T00:04:08;15.10;;;5.00;;
72095;SDS011;59968;51.084;16.748;2023-02-13T00:06:36;10.60;;;4.20;;
72095;SDS011;59968;51.084;16.748;2023-02-13T00:09:04;12.70;;;4.60;;
72095;SDS011;59968;51.084;16.748;2023-02-13T00:11:34;11.40;;;3.80;;
72095;SDS011;59968;51.084;16.748;2023-02-13T00:14:06;12.20;;;4.40;;
72095;SDS011;59968;51.084;16.748;2023-02-13T00:16:35;13.00;;;5.00;;
72095;SDS011;59968;51.084;16.748;2023-02-13T00:19:04;12.50;;;4.70;;
72095;SDS011;59968;51.084;16.748;2023-02-13T00:21:32;12.70;;;5.10;;
72095;SDS011;59968;51.084;16.748;2023-02-13T00:24:00;14.70;;;5.40;;
72095;SDS011;59968;51.084;16.748;2023-02-13T00:26:28;13.20;;;4.70;;
72095;SDS011;59968;51.084;16.748;2023-02-13T00:28:57;15.50;;;5.60;;
72095;SDS011;59968;51.084;16.748;2023-02-13T00:31:25;13.40;;;5.30;;
72095;SDS011;59968;51.084;16.748;2023-02-13T00:33:54;12.40;;;4.80;;
72095;SDS011;59968;51.084;16.748;2023-02-13T00:36:22;13.80;;;4.90;;
72095;SDS011;59968;51.084;16.748;2023-02-13T00:38:52;11.60;;;4.90;;
72095;SDS011;59968;51.084;16.748;2023-02-13T00:41:21;12.90;;;4.60;;
72095;SDS011;59968;51.084;16.748;2023-02-13T00:43:51;10.70;;;4.40;;
72095;SDS011;59968;51.084;16.748;2023-02-13T00:46:21;18.50;;;7.60;;
72095;SDS011;59968;51.084;16.748;2023-02-13T00:48:49;18.10;;;6.60;;
72095;SDS011;59968;51.084;16.748;2023-02-13T00:51:17;12.30;;;5.30;;
72095;SDS011;59968;51.084;16.748;2023-02-13T00:53:45;12.50;;;5.00;;
72095;SDS011;59968;51.084;16.748;2023-02-13T00:56:15;19.40;;;5.80;;
72095;SDS011;59968;51.084;16.748;2023-02-13T00:58:44;17.30;;;5.20;;
72095;SDS011;59968;51.084;16.748;2023-02-13T01:01:13;13.90;;;4.90;;
72095;SDS011;59968;51.084;16.748;2023-02-13T01:03:41;14.00;;;5.10;;
72095;SDS011;59968;51.084;16.748;2023-02-13T01:06:10;12.60;;;4.70;;
72095;SDS011;59968;51.084;16.748;2023-02-13T01:08:38;13.00;;;4.70;;
72095;SDS011;59968;51.084;16.748;2023-02-13T01:11:08;11.60;;;4.10;;
72095;SDS011;59968;51.084;16.748;2023-02-13T01:13:37;12.10;;;4.60;;
72095;SDS011;59968;51.084;16.748;2023-02-13T01:16:05;12.70;;;5.00;;
72095;SDS011;59968;51.084;16.748;2023-02-13T01:18:35;12.40;;;4.90;;
72095;SDS011;59968;51.084;16.748;2023-02-13T01:21:05;11.40;;;4.50;;
72095;SDS011;59968;51.084;16.748;2023-02-13T01:23:36;10.60;;;4.30;;
72095;SDS011;59968;51.084;16.748;2023-02-13T01:26:06;10.80;;;4.50;;
72095;SDS011;59968;51.084;16.748;2023-02-13T01:28:38;9.90;;;4.10;;
72095;SDS011;59968;51.084;16.748;2023-02-13T01:31:06;10.40;;;3.90;;
72095;SDS011;59968;51.084;16.748;2023-02-13T01:33:35;9.60;;;3.90;;
72095;SDS011;59968;51.084;16.748;2023-02-13T01:36:04;9.30;;;3.90;;
72095;SDS011;59968;51.084;16.748;2023-02-13T01:38:37;9.90;;;3.90;;
72095;SDS011;59968;51.084;16.748;2023-02-13T01:41:06;10.20;;;3.80;;
72095;SDS011;59968;51.084;16.748;2023-02-13T01:43:54;9.30;;;4.10;;
72095;SDS011;59968;51.084;16.748;2023-02-13T01:48:57;9.20;;;3.60;;
72095;SDS011;59968;51.084;16.748;2023-02-13T01:51:45;9.50;;;3.50;;
72095;SDS011;59968;51.084;16.748;2023-02-13T01:54:20;8.10;;;3.60;;
72095;SDS011;59968;51.084;16.748;2023-02-13T01:57:02;7.90;;;3.20;;
72095;SDS011;59968;51.084;16.748;2023-02-13T01:59:42;8.60;;;3.70;;
72095;SDS011;59968;51.084;16.748;2023-02-13T02:02:16;7.80;;;3.60;;
72095;SDS011;59968;51.084;16.748;2023-02-13T02:04:46;8.50;;;3.40;;
72095;SDS011;59968;51.084;16.748;2023-02-13T02:07:22;11.70;;;3.90;;
72095;SDS011;59968;51.084;16.748;2023-02-13T02:09:55;8.70;;;3.60;;
72095;SDS011;59968;51.084;16.748;2023-02-13T02:12:37;9.90;;;3.70;;
72095;SDS011;59968;51.084;16.748;2023-02-13T02:15:10;9.00;;;3.50;;
72095;SDS011;59968;51.084;16.748;2023-02-13T02:17:39;8.60;;;3.90;;
72095;SDS011;59968;51.084;16.748;2023-02-13T02:42:02;10.90;;;3.80;;
72095;SDS011;59968;51.084;16.748;2023-02-13T02:47:58;8.40;;;3.90;;
72095;SDS011;59968;51.084;16.748;2023-02-13T02:53:53;8.00;;;3.60;;
72095;SDS011;59968;51.084;16.748;2023-02-13T02:56:56;11.20;;;4.10;;
72095;SDS011;59968;51.084;16.748;2023-02-13T02:59:31;11.20;;;4.40;;
72095;SDS011;59968;51.084;16.748;2023-02-13T03:02:19;10.50;;;3.80;;
72095;SDS011;59968;51.084;16.748;2023-02-13T03:05:13;8.90;;;3.30;;
72095;SDS011;59968;51.084;16.748;2023-02-13T03:08:15;9.70;;;3.90;;
72095;SDS011;59968;51.084;16.748;2023-02-13T03:11:08;10.60;;;4.60;;
72095;SDS011;59968;51.084;16.748;2023-02-13T03:13:55;10.60;;;4.40;;
72095;SDS011;59968;51.084;16.748;2023-02-13T03:16:28;10.80;;;4.40;;
72095;SDS011;59968;51.084;16.748;2023-02-13T03:19:16;9.00;;;4.10;;
72095;SDS011;59968;51.084;16.748;2023-02-13T03:25:32;9.70;;;4.10;;
72095;SDS011;59968;51.084;16.748;2023-02-13T03:28:16;7.50;;;3.40;;
72095;SDS011;59968;51.084;16.748;2023-02-13T03:31:12;11.60;;;4.60;;
72095;SDS011;59968;51.084;16.748;2023-02-13T03:33:56;10.30;;;4.20;;
72095;SDS011;59968;51.084;16.748;2023-02-13T03:37:02;13.90;;;4.60;;
72095;SDS011;59968;51.084;16.748;2023-02-13T03:45:10;10.10;;;3.90;;
72095;SDS011;59968;51.084;16.748;2023-02-13T03:48:00;8.80;;;4.10;;
72095;SDS011;59968;51.084;16.748;2023-02-13T03:50:37;10.70;;;3.90;;
72095;SDS011;59968;51.084;16.748;2023-02-13T03:53:10;8.70;;;3.60;;
72095;SDS011;59968;51.084;16.748;2023-02-13T03:55:43;9.30;;;3.30;;
72095;SDS011;59968;51.084;16.748;2023-02-13T03:58:37;11.60;;;4.40;;
72095;SDS011;59968;51.084;16.748;2023-02-13T04:01:30;10.60;;;4.10;;
72095;SDS011;59968;51.084;16.748;2023-02-13T04:04:08;9.60;;;3.90;;
72095;SDS011;59968;51.084;16.748;2023-02-13T04:06:45;9.30;;;4.00;;
72095;SDS011;59968;51.084;16.748;2023-02-13T04:09:19;9.60;;;4.30;;
72095;SDS011;59968;51.084;16.748;2023-02-13T04:14:38;11.40;;;4.70;;
72095;SDS011;59968;51.084;16.748;2023-02-13T04:17:16;9.30;;;3.90;;
72095;SDS011;59968;51.084;16.748;2023-02-13T04:19:50;8.70;;;4.30;;
72095;SDS011;59968;51.084;16.748;2023-02-13T04:22:18;8.10;;;3.80;;
72095;SDS011;59968;51.084;16.748;2023-02-13T04:24:46;10.70;;;4.20;;
72095;SDS011;59968;51.084;16.748;2023-02-13T04:27:15;9.20;;;4.30;;
72095;SDS011;59968;51.084;16.748;2023-02-13T04:29:44;10.90;;;4.30;;
72095;SDS011;59968;51.084;16.748;2023-02-13T04:32:13;10.80;;;4.30;;
72095;SDS011;59968;51.084;16.748;2023-02-13T04:34:41;8.90;;;4.20;;
72095;SDS011;59968;51.084;16.748;2023-02-13T04:37:10;9.20;;;3.90;;
72095;SDS011;59968;51.084;16.748;2023-02-13T04:39:38;8.90;;;3.90;;
72095;SDS011;59968;51.084;16.748;2023-02-13T04:42:06;8.70;;;4.10;;
72095;SDS011;59968;51.084;16.748;2023-02-13T04:44:35;9.70;;;4.40;;
72095;SDS011;59968;51.084;16.748;2023-02-13T04:47:03;9.50;;;4.60;;
72095;SDS011;59968;51.084;16.748;2023-02-13T04:49:31;10.80;;;4.40;;
72095;SDS011;59968;51.084;16.748;2023-02-13T04:52:00;10.20;;;4.60;;
72095;SDS011;59968;51.084;16.748;2023-02-13T04:54:28;8.30;;;4.10;;
72095;SDS011;59968;51.084;16.748;2023-02-13T04:56:56;9.50;;;4.70;;
72095;SDS011;59968;51.084;16.748;2023-02-13T04:59:24;11.10;;;4.60;;
72095;SDS011;59968;51.084;16.748;2023-02-13T05:01:56;9.90;;;4.30;;
72095;SDS011;59968;51.084;16.748;2023-02-13T05:04:26;10.50;;;3.60;;
72095;SDS011;59968;51.084;16.748;2023-02-13T05:06:56;9.70;;;3.90;;
72095;SDS011;59968;51.084;16.748;2023-02-13T05:09:24;10.60;;;4.80;;
72095;SDS011;59968;51.084;16.748;2023-02-13T05:11:52;10.20;;;4.80;;
72095;SDS011;59968;51.084;16.748;2023-02-13T05:14:21;12.00;;;5.60;;
72095;SDS011;59968;51.084;16.748;2023-02-13T05:16:49;10.60;;;5.10;;
72095;SDS011;59968;51.084;16.748;2023-02-13T05:19:18;12.60;;;4.70;;
72095;SDS011;59968;51.084;16.748;2023-02-13T05:21:46;9.50;;;4.20;;
72095;SDS011;59968;51.084;16.748;2023-02-13T05:24:33;8.50;;;4.00;;
72095;SDS011;59968;51.084;16.748;2023-02-13T05:27:01;9.10;;;4.30;;
72095;SDS011;59968;51.084;16.748;2023-02-13T05:29:29;10.30;;;4.20;;
72095;SDS011;59968;51.084;16.748;2023-02-13T05:31:58;9.20;;;3.70;;
72095;SDS011;59968;51.084;16.748;2023-02-13T05:34:29;8.40;;;3.60;;
72095;SDS011;59968;51.084;16.748;2023-02-13T05:36:57;9.70;;;4.20;;
72095;SDS011;59968;51.084;16.748;2023-02-13T05:39:26;9.50;;;4.10;;
72095;SDS011;59968;51.084;16.748;2023-02-13T05:41:54;9.60;;;3.90;;
72095;SDS011;59968;51.084;16.748;2023-02-13T05:44:23;10.20;;;4.20;;
72095;SDS011;59968;51.084;16.748;2023-02-13T05:46:51;10.50;;;4.30;;
72095;SDS011;59968;51.084;16.748;2023-02-13T05:49:20;10.30;;;4.30;;
72095;SDS011;59968;51.084;16.748;2023-02-13T05:51:49;9.30;;;4.40;;
72095;SDS011;59968;51.084;16.748;2023-02-13T05:54:19;10.90;;;4.20;;
72095;SDS011;59968;51.084;16.748;2023-02-13T05:56:48;12.50;;;4.50;;
72095;SDS011;59968;51.084;16.748;2023-02-13T05:59:16;9.40;;;4.00;;
72095;SDS011;59968;51.084;16.748;2023-02-13T06:01:45;10.20;;;4.60;;
72095;SDS011;59968;51.084;16.748;2023-02-13T06:04:13;9.50;;;4.40;;
72095;SDS011;59968;51.084;16.748;2023-02-13T06:06:42;9.80;;;4.90;;
72095;SDS011;59968;51.084;16.748;2023-02-13T06:09:11;10.10;;;4.30;;
72095;SDS011;59968;51.084;16.748;2023-02-13T06:11:39;10.90;;;4.70;;
72095;SDS011;59968;51.084;16.748;2023-02-13T06:14:08;11.70;;;4.60;;
72095;SDS011;59968;51.084;16.748;2023-02-13T06:16:36;10.00;;;4.20;;
72095;SDS011;59968;51.084;16.748;2023-02-13T06:19:05;8.50;;;3.80;;
72095;SDS011;59968;51.084;16.748;2023-02-13T06:21:35;8.70;;;3.80;;
72095;SDS011;59968;51.084;16.748;2023-02-13T06:24:06;8.00;;;3.90;;
72095;SDS011;59968;51.084;16.748;2023-02-13T06:26:35;8.00;;;3.70;;
72095;SDS011;59968;51.084;16.748;2023-02-13T06:29:03;9.20;;;3.80;;
72095;SDS011;59968;51.084;16.748;2023-02-13T06:31:34;8.30;;;3.70;;
72095;SDS011;59968;51.084;16.748;2023-02-13T06:34:03;7.30;;;3.80;;
72095;SDS011;59968;51.084;16.748;2023-02-13T06:36:33;8.50;;;3.50;;
72095;SDS011;59968;51.084;16.748;2023-02-13T06:39:04;7.30;;;3.40;;
72095;SDS011;59968;51.084;16.748;2023-02-13T06:41:32;8.90;;;4.10;;
72095;SDS011;59968;51.084;16.748;2023-02-13T06:44:01;9.70;;;4.00;;
72095;SDS011;59968;51.084;16.748;2023-02-13T06:46:30;7.30;;;3.50;;
72095;SDS011;59968;51.084;16.748;2023-02-13T06:48:59;8.30;;;4.00;;
72095;SDS011;59968;51.084;16.748;2023-02-13T06:51:27;10.50;;;4.10;;
72095;SDS011;59968;51.084;16.748;2023-02-13T06:53:55;9.80;;;4.20;;
72095;SDS011;59968;51.084;16.748;2023-02-13T06:56:24;9.20;;;3.80;;
72095;SDS011;59968;51.084;16.748;2023-02-13T06:58:53;9.10;;;3.80;;
72095;SDS011;59968;51.084;16.748;2023-02-13T07:01:21;9.60;;;4.20;;
72095;SDS011;59968;51.084;16.748;2023-02-13T07:03:50;9.00;;;4.00;;
72095;SDS011;59968;51.084;16.748;2023-02-13T07:06:19;11.20;;;4.60;;
72095;SDS011;59968;51.084;16.748;2023-02-13T07:08:49;14.60;;;6.20;;
72095;SDS011;59968;51.084;16.748;2023-02-13T07:14:41;14.80;;;5.70;;
72095;SDS011;59968;51.084;16.748;2023-02-13T07:17:12;13.60;;;5.40;;
72095;SDS011;59968;51.084;16.748;2023-02-13T07:19:41;10.80;;;5.00;;
72095;SDS011;59968;51.084;16.748;2023-02-13T07:22:11;13.00;;;5.90;;
72095;SDS011;59968;51.084;16.748;2023-02-13T07:24:41;11.80;;;5.20;;
72095;SDS011;59968;51.084;16.748;2023-02-13T07:27:10;9.40;;;4.70;;
72095;SDS011;59968;51.084;16.748;2023-02-13T07:29:39;10.60;;;5.00;;
72095;SDS011;59968;51.084;16.748;2023-02-13T07:32:08;10.00;;;4.40;;
72095;SDS011;59968;51.084;16.748;2023-02-13T07:34:37;10.00;;;4.10;;
72095;SDS011;59968;51.084;16.748;2023-02-13T07:37:16;11.90;;;5.30;;
72095;SDS011;59968;51.084;16.748;2023-02-13T07:39:44;13.20;;;4.70;;
72095;SDS011;59968;51.084;16.748;2023-02-13T07:42:13;14.90;;;5.50;;
72095;SDS011;59968;51.084;16.748;2023-02-13T07:44:41;11.00;;;5.00;;
72095;SDS011;59968;51.084;16.748;2023-02-13T07:47:11;13.70;;;4.90;;
72095;SDS011;59968;51.084;16.748;2023-02-13T07:49:40;13.20;;;4.80;;
72095;SDS011;59968;51.084;16.748;2023-02-13T07:52:11;15.60;;;5.30;;
72095;SDS011;59968;51.084;16.748;2023-02-13T07:54:40;12.50;;;4.40;;
72095;SDS011;59968;51.084;16.748;2023-02-13T07:57:15;12.60;;;4.30;;
72095;SDS011;59968;51.084;16.748;2023-02-13T07:59:44;17.30;;;6.50;;
72095;SDS011;59968;51.084;16.748;2023-02-13T08:02:13;16.60;;;5.70;;
72095;SDS011;59968;51.084;16.748;2023-02-13T08:04:43;16.40;;;5.90;;
72095;SDS011;59968;51.084;16.748;2023-02-13T08:07:16;20.00;;;6.40;;
72095;SDS011;59968;51.084;16.748;2023-02-13T08:09:46;17.10;;;6.40;;
72095;SDS011;59968;51.084;16.748;2023-02-13T08:12:34;15.90;;;5.30;;
72095;SDS011;59968;51.084;16.748;2023-02-13T08:15:04;15.70;;;5.20;;
72095;SDS011;59968;51.084;16.748;2023-02-13T08:17:33;21.60;;;5.70;;
72095;SDS011;59968;51.084;16.748;2023-02-13T08:20:02;21.30;;;7.00;;
72095;SDS011;59968;51.084;16.748;2023-02-13T08:22:42;14.90;;;5.10;;
72095;SDS011;59968;51.084;16.748;2023-02-13T08:25:15;19.40;;;5.90;;
72095;SDS011;59968;51.084;16.748;2023-02-13T08:27:50;18.30;;;5.60;;
72095;SDS011;59968;51.084;16.748;2023-02-13T08:30:19;17.00;;;6.20;;
72095;SDS011;59968;51.084;16.748;2023-02-13T08:32:50;21.40;;;7.00;;
72095;SDS011;59968;51.084;16.748;2023-02-13T08:35:22;14.10;;;5.00;;
72095;SDS011;59968;51.084;16.748;2023-02-13T08:38:00;16.40;;;5.90;;
72095;SDS011;59968;51.084;16.748;2023-02-13T08:40:30;21.30;;;7.20;;
72095;SDS011;59968;51.084;16.748;2023-02-13T08:43:03;16.40;;;6.10;;
72095;SDS011;59968;51.084;16.748;2023-02-13T08:45:34;20.20;;;6.60;;
72095;SDS011;59968;51.084;16.748;2023-02-13T08:48:03;16.90;;;6.00;;
72095;SDS011;59968;51.084;16.748;2023-02-13T08:50:32;14.50;;;5.90;;
72095;SDS011;59968;51.084;16.748;2023-02-13T08:53:04;22.20;;;7.00;;
72095;SDS011;59968;51.084;16.748;2023-02-13T08:55:34;19.60;;;6.20;;
72095;SDS011;59968;51.084;16.748;2023-02-13T08:58:03;18.30;;;5.70;;
72095;SDS011;59968;51.084;16.748;2023-02-13T09:00:32;14.10;;;5.40;;
72095;SDS011;59968;51.084;16.748;2023-02-13T09:03:02;20.00;;;6.90;;
72095;SDS011;59968;51.084;16.748;2023-02-13T09:05:32;20.00;;;7.60;;
72095;SDS011;59968;51.084;16.748;2023-02-13T09:08:01;17.40;;;6.30;;
72095;SDS011;59968;51.084;16.748;2023-02-13T09:10:31;16.40;;;6.10;;
72095;SDS011;59968;51.084;16.748;2023-02-13T09:13:00;17.20;;;5.60;;
72095;SDS011;59968;51.084;16.748;2023-02-13T09:15:29;17.30;;;6.80;;
72095;SDS011;59968;51.084;16.748;2023-02-13T09:18:00;21.10;;;8.00;;
72095;SDS011;59968;51.084;16.748;2023-02-13T09:20:29;13.70;;;4.80;;
72095;SDS011;59968;51.084;16.748;2023-02-13T09:23:00;7.00;;;2.90;;
72095;SDS011;59968;51.084;16.748;2023-02-13T09:25:29;5.90;;;2.30;;
72095;SDS011;59968;51.084;16.748;2023-02-13T09:28:00;5.10;;;2.20;;
72095;SDS011;59968;51.084;16.748;2023-02-13T09:30:30;5.10;;;1.40;;
72095;SDS011;59968;51.084;16.748;2023-02-13T09:32:59;3.40;;;1.40;;
72095;SDS011;59968;51.084;16.748;2023-02-13T09:35:28;4.40;;;1.90;;
72095;SDS011;59968;51.084;16.748;2023-02-13T09:37:59;4.70;;;1.60;;
72095;SDS011;59968;51.084;16.748;2023-02-13T09:40:29;4.50;;;1.80;;
72095;SDS011;59968;51.084;16.748;2023-02-13T09:43:16;3.10;;;1.70;;
72095;SDS011;59968;51.084;16.748;2023-02-13T09:45:59;2.40;;;1.20;;
72095;SDS011;59968;51.084;16.748;2023-02-13T09:48:36;3.60;;;1.70;;
72095;SDS011;59968;51.084;16.748;2023-02-13T09:51:16;5.70;;;2.30;;
72095;SDS011;59968;51.084;16.748;2023-02-13T09:53:55;5.60;;;1.80;;
72095;SDS011;59968;51.084;16.748;2023-02-13T10:05:09;3.70;;;1.90;;
72095;SDS011;59968;51.084;16.748;2023-02-13T10:10:26;5.60;;;2.50;;
72095;SDS011;59968;51.084;16.748;2023-02-13T10:16:01;6.00;;;3.20;;
72095;SDS011;59968;51.084;16.748;2023-02-13T10:21:44;6.60;;;2.40;;
72095;SDS011;59968;51.084;16.748;2023-02-13T10:26:58;5.40;;;2.20;;
72095;SDS011;59968;51.084;16.748;2023-02-13T10:29:44;5.80;;;2.70;;
72095;SDS011;59968;51.084;16.748;2023-02-13T10:36:33;7.20;;;2.50;;
72095;SDS011;59968;51.084;16.748;2023-02-13T10:50:08;8.70;;;3.30;;
72095;SDS011;59968;51.084;16.748;2023-02-13T11:03:38;6.70;;;2.80;;
72095;SDS011;59968;51.084;16.748;2023-02-13T11:06:07;7.20;;;3.10;;
72095;SDS011;59968;51.084;16.748;2023-02-13T11:08:43;8.50;;;4.00;;
72095;SDS011;59968;51.084;16.748;2023-02-13T11:11:32;5.90;;;2.70;;
72095;SDS011;59968;51.084;16.748;2023-02-13T11:14:08;6.60;;;2.60;;
72095;SDS011;59968;51.084;16.748;2023-02-13T11:17:01;10.60;;;4.00;;
72095;SDS011;59968;51.084;16.748;2023-02-13T11:19:31;9.30;;;3.70;;
72095;SDS011;59968;51.084;16.748;2023-02-13T11:22:03;6.10;;;2.40;;
72095;SDS011;59968;51.084;16.748;2023-02-13T11:24:33;5.30;;;2.40;;
72095;SDS011;59968;51.084;16.748;2023-02-13T11:27:04;8.30;;;3.40;;
72095;SDS011;59968;51.084;16.748;2023-02-13T11:29:51;7.50;;;4.10;;
72095;SDS011;59968;51.084;16.748;2023-02-13T11:32:25;9.00;;;3.70;;
72095;SDS011;59968;51.084;16.748;2023-02-13T11:34:56;9.40;;;3.70;;
72095;SDS011;59968;51.084;16.748;2023-02-13T11:37:29;9.40;;;4.00;;
72095;SDS011;59968;51.084;16.748;2023-02-13T11:39:59;8.60;;;3.80;;
72095;SDS011;59968;51.084;16.748;2023-02-13T11:42:48;6.20;;;3.00;;
72095;SDS011;59968;51.084;16.748;2023-02-13T11:45:22;8.10;;;3.70;;
72095;SDS011;59968;51.084;16.748;2023-02-13T11:47:53;6.20;;;2.80;;
72095;SDS011;59968;51.084;16.748;2023-02-13T11:55:32;11.00;;;4.50;;
72095;SDS011;59968;51.084;16.748;2023-02-13T12:00:38;7.20;;;3.30;;
72095;SDS011;59968;51.084;16.748;2023-02-13T12:06:24;8.80;;;3.30;;
72095;SDS011;59968;51.084;16.748;2023-02-13T12:08:47;7.30;;;3.40;;
72095;SDS011;59968;51.084;16.748;2023-02-13T12:11:38;8.50;;;4.50;;
72095;SDS011;59968;51.084;16.748;2023-02-13T12:14:22;6.90;;;3.80;;
72095;SDS011;59968;51.084;16.748;2023-02-13T12:19:29;10.60;;;5.50;;
72095;SDS011;59968;51.084;16.748;2023-02-13T12:30:54;8.10;;;3.60;;
72095;SDS011;59968;51.084;16.748;2023-02-13T12:36:48;11.70;;;4.80;;
72095;SDS011;59968;51.084;16.748;2023-02-13T12:56:36;7.70;;;3.70;;
72095;SDS011;59968;51.084;16.748;2023-02-13T13:02:06;9.50;;;4.60;;
72095;SDS011;59968;51.084;16.748;2023-02-13T13:10:43;9.80;;;3.70;;
72095;SDS011;59968;51.084;16.748;2023-02-13T13:13:42;7.80;;;3.90;;
72095;SDS011;59968;51.084;16.748;2023-02-13T13:16:20;9.80;;;4.40;;
72095;SDS011;59968;51.084;16.748;2023-02-13T13:22:01;9.40;;;4.20;;
72095;SDS011;59968;51.084;16.748;2023-02-13T13:27:50;9.80;;;4.50;;
72095;SDS011;59968;51.084;16.748;2023-02-13T13:30:27;7.00;;;3.50;;
72095;SDS011;59968;51.084;16.748;2023-02-13T13:35:47;5.50;;;2.70;;
72095;SDS011;59968;51.084;16.748;2023-02-13T13:44:52;9.50;;;4.20;;
72095;SDS011;59968;51.084;16.748;2023-02-13T13:50:22;7.80;;;3.10;;
72095;SDS011;59968;51.084;16.748;2023-02-13T13:53:10;7.90;;;3.80;;
72095;SDS011;59968;51.084;16.748;2023-02-13T13:58:21;9.80;;;4.40;;
72095;SDS011;59968;51.084;16.748;2023-02-13T14:03:53;9.70;;;3.80;;
72095;SDS011;59968;51.084;16.748;2023-02-13T14:06:26;9.10;;;4.20;;
72095;SDS011;59968;51.084;16.748;2023-02-13T14:09:35;9.10;;;4.90;;
72095;SDS011;59968;51.084;16.748;2023-02-13T14:14:58;9.10;;;3.70;;
72095;SDS011;59968;51.084;16.748;2023-02-13T14:20:32;8.40;;;3.10;;
72095;SDS011;59968;51.084;16.748;2023-02-13T14:25:44;8.60;;;4.00;;
72095;SDS011;59968;51.084;16.748;2023-02-13T14:28:22;10.10;;;5.00;;
72095;SDS011;59968;51.084;16.748;2023-02-13T14:31:03;7.80;;;3.60;;
72095;SDS011;59968;51.084;16.748;2023-02-13T14:34:35;7.30;;;3.40;;
72095;SDS011;59968;51.084;16.748;2023-02-13T14:36:47;11.80;;;5.20;;
72095;SDS011;59968;51.084;16.748;2023-02-13T14:39:33;14.00;;;5.60;;
72095;SDS011;59968;51.084;16.748;2023-02-13T14:42:37;11.40;;;5.70;;
72095;SDS011;59968;51.084;16.748;2023-02-13T14:44:58;11.50;;;5.20;;
72095;SDS011;59968;51.084;16.748;2023-02-13T14:47:31;12.00;;;5.10;;
72095;SDS011;59968;51.084;16.748;2023-02-13T14:53:25;15.00;;;6.90;;
72095;SDS011;59968;51.084;16.748;2023-02-13T14:55:58;16.90;;;7.40;;
72095;SDS011;59968;51.084;16.748;2023-02-13T14:58:35;11.90;;;6.00;;
72095;SDS011;59968;51.084;16.748;2023-02-13T15:01:32;9.90;;;4.70;;
72095;SDS011;59968;51.084;16.748;2023-02-13T15:04:09;14.40;;;6.50;;
72095;SDS011;59968;51.084;16.748;2023-02-13T15:06:59;12.10;;;5.70;;
72095;SDS011;59968;51.084;16.748;2023-02-13T15:09:33;12.60;;;5.60;;
72095;SDS011;59968;51.084;16.748;2023-02-13T15:12:25;14.60;;;6.10;;
72095;SDS011;59968;51.084;16.748;2023-02-13T15:14:57;13.80;;;7.10;;
72095;SDS011;59968;51.084;16.748;2023-02-13T15:17:29;12.80;;;6.40;;
72095;SDS011;59968;51.084;16.748;2023-02-13T15:22:40;14.80;;;6.20;;
72095;SDS011;59968;51.084;16.748;2023-02-13T15:28:05;13.30;;;6.00;;
72095;SDS011;59968;51.084;16.748;2023-02-13T15:30:36;14.10;;;6.60;;
72095;SDS011;59968;51.084;16.748;2023-02-13T15:35:46;14.30;;;6.10;;
72095;SDS011;59968;51.084;16.748;2023-02-13T15:38:27;13.20;;;5.70;;
72095;SDS011;59968;51.084;16.748;2023-02-13T15:40:59;14.50;;;6.60;;
72095;SDS011;59968;51.084;16.748;2023-02-13T15:43:37;12.30;;;5.50;;
72095;SDS011;59968;51.084;16.748;2023-02-13T15:46:20;13.70;;;6.50;;
72095;SDS011;59968;51.084;16.748;2023-02-13T15:48:59;14.10;;;6.40;;
72095;SDS011;59968;51.084;16.748;2023-02-13T15:51:34;13.20;;;6.10;;
72095;SDS011;59968;51.084;16.748;2023-02-13T15:54:05;12.70;;;6.10;;
72095;SDS011;59968;51.084;16.748;2023-02-13T15:56:49;14.30;;;6.00;;
72095;SDS011;59968;51.084;16.748;2023-02-13T15:59:19;14.60;;;6.40;;
72095;SDS011;59968;51.084;16.748;2023-02-13T16:01:49;13.80;;;6.10;;
72095;SDS011;59968;51.084;16.748;2023-02-13T16:04:19;13.30;;;6.00;;
72095;SDS011;59968;51.084;16.748;2023-02-13T16:06:48;15.00;;;6.80;;
72095;SDS011;59968;51.084;16.748;2023-02-13T16:09:33;11.30;;;5.70;;
72095;SDS011;59968;51.084;16.748;2023-02-13T16:12:17;12.60;;;6.00;;
72095;SDS011;59968;51.084;16.748;2023-02-13T16:14:54;12.10;;;5.60;;
72095;SDS011;59968;51.084;16.748;2023-02-13T16:19:59;13.30;;;6.30;;
72095;SDS011;59968;51.084;16.748;2023-02-13T16:22:39;13.70;;;6.30;;
72095;SDS011;59968;51.084;16.748;2023-02-13T16:28:13;12.60;;;5.60;;
72095;SDS011;59968;51.084;16.748;2023-02-13T16:30:45;13.00;;;5.90;;
72095;SDS011;59968;51.084;16.748;2023-02-13T16:33:37;15.50;;;6.50;;
72095;SDS011;59968;51.084;16.748;2023-02-13T16:38:44;18.40;;;8.10;;
72095;SDS011;59968;51.084;16.748;2023-02-13T16:54:20;41.40;;;21.20;;
72095;SDS011;59968;51.084;16.748;2023-02-13T17:02:14;34.10;;;21.60;;
72095;SDS011;59968;51.084;16.748;2023-02-13T17:04:44;23.20;;;12.10;;
72095;SDS011;59968;51.084;16.748;2023-02-13T17:10:23;19.90;;;12.20;;
72095;SDS011;59968;51.084;16.748;2023-02-13T17:13:12;15.50;;;9.00;;
72095;SDS011;59968;51.084;16.748;2023-02-13T17:15:49;16.40;;;9.20;;
72095;SDS011;59968;51.084;16.748;2023-02-13T17:18:20;13.20;;;6.70;;
72095;SDS011;59968;51.084;16.748;2023-02-13T17:20:49;13.40;;;7.20;;
72095;SDS011;59968;51.084;16.748;2023-02-13T17:23:22;15.00;;;7.60;;
72095;SDS011;59968;51.084;16.748;2023-02-13T17:25:52;18.80;;;8.70;;
72095;SDS011;59968;51.084;16.748;2023-02-13T17:28:23;28.40;;;12.50;;
72095;SDS011;59968;51.084;16.748;2023-02-13T17:30:54;20.80;;;10.30;;
72095;SDS011;59968;51.084;16.748;2023-02-13T17:33:27;22.80;;;11.00;;
72095;SDS011;59968;51.084;16.748;2023-02-13T17:35:59;15.60;;;7.70;;
72095;SDS011;59968;51.084;16.748;2023-02-13T17:38:28;14.90;;;6.90;;
72095;SDS011;59968;51.084;16.748;2023-02-13T17:40:57;17.90;;;8.60;;
72095;SDS011;59968;51.084;16.748;2023-02-13T17:43:28;14.10;;;7.00;;
72095;SDS011;59968;51.084;16.748;2023-02-13T17:45:58;14.00;;;6.90;;
72095;SDS011;59968;51.084;16.748;2023-02-13T17:48:29;20.10;;;10.00;;
72095;SDS011;59968;51.084;16.748;2023-02-13T17:51:00;14.00;;;7.20;;
72095;SDS011;59968;51.084;16.748;2023-02-13T17:53:31;16.00;;;7.70;;
72095;SDS011;59968;51.084;16.748;2023-02-13T17:56:01;18.30;;;8.70;;
72095;SDS011;59968;51.084;16.748;2023-02-13T17:58:31;17.50;;;7.90;;
72095;SDS011;59968;51.084;16.748;2023-02-13T18:01:02;14.80;;;7.00;;
72095;SDS011;59968;51.084;16.748;2023-02-13T18:03:31;20.90;;;11.00;;
72095;SDS011;59968;51.084;16.748;2023-02-13T18:06:01;22.20;;;10.30;;
72095;SDS011;59968;51.084;16.748;2023-02-13T18:08:30;17.50;;;8.10;;
72095;SDS011;59968;51.084;16.748;2023-02-13T18:10:59;23.90;;;11.10;;
72095;SDS011;59968;51.084;16.748;2023-02-13T18:13:28;21.50;;;10.10;;
72095;SDS011;59968;51.084;16.748;2023-02-13T18:15:57;21.80;;;9.70;;
72095;SDS011;59968;51.084;16.748;2023-02-13T18:18:26;21.00;;;8.80;;
72095;SDS011;59968;51.084;16.748;2023-02-13T18:20:55;26.10;;;11.60;;
72095;SDS011;59968;51.084;16.748;2023-02-13T18:23:25;20.00;;;9.20;;
72095;SDS011;59968;51.084;16.748;2023-02-13T18:26:02;15.20;;;6.70;;
72095;SDS011;59968;51.084;16.748;2023-02-13T18:28:35;16.60;;;7.50;;
72095;SDS011;59968;51.084;16.748;2023-02-13T18:31:07;23.80;;;8.80;;
72095;SDS011;59968;51.084;16.748;2023-02-13T18:33:37;16.30;;;7.10;;
72095;SDS011;59968;51.084;16.748;2023-02-13T18:36:06;18.90;;;7.80;;
72095;SDS011;59968;51.084;16.748;2023-02-13T18:38:36;14.30;;;6.00;;
72095;SDS011;59968;51.084;16.748;2023-02-13T18:41:07;19.00;;;7.40;;